Saint Peter, Illinois
Current Conditions -  °F | °C
As of 7:35 PM on Thursday 18 Dec 2014 (Local Time) from KSLO Reporting Station
Overcast Overcast  
Wind Chill: 33°   Ceiling: 3400
Heat Index: 33°   Visibility: 7mi
Dew Point: 27°   Wind: 3mph
Humidity: 78%   Direction: 30°NNE
Pressure: 30.27"   Gusts: NA
Location:  38.87°N, 88.85°W
Report Text: KSLO 190135Z AUTO 03003KT 7SM OVC034 01/M03 A3027 RMK AO2 T00051030
Loading
Personal Weather Stations






























Interactive Weather Map New forecast layout! Learn more

10-Day Weather Forecast

Advertisements
Track Severe Weather on mobile